Time;durP1;ratioP1;P1;durP2;ratioP2;P2;SDS_P1;SDS_P2;PMS_P1;PMS_P2;Temp;Humidity;BMP_temperature;BMP_pressure;BME280_temperature;BME280_humidity;BME280_pressure;Samples;Min_cycle;Max_cycle;Signal;HPM_P1;HPM_P2
2021/11/18 00:01:28;;;;;;;7.97;5.63;;;4.00;99.90;;;;;;5027159;28;20245;-60
2021/11/18 00:03:55;;;;;;;9.30;6.00;;;4.00;99.90;;;;;;5028471;28;20429;-59
2021/11/18 00:06:21;;;;;;;9.00;6.23;;;4.00;99.90;;;;;;5013071;28;20427;-60
2021/11/18 00:08:47;;;;;;;8.57;6.47;;;4.10;99.90;;;;;;5011250;28;20416;-60
2021/11/18 00:11:15;;;;;;;7.50;5.67;;;4.10;99.90;;;;;;5012024;28;20439;-60
2021/11/18 00:13:45;;;;;;;8.47;5.60;;;4.10;99.90;;;;;;5013046;28;20431;-61
2021/11/18 00:16:11;;;;;;;9.43;6.20;;;4.10;99.90;;;;;;5013443;28;20466;-60
2021/11/18 00:18:38;;;;;;;9.53;6.50;;;4.10;99.90;;;;;;5023791;28;20415;-58
2021/11/18 00:21:16;;;;;;;10.10;5.57;;;4.10;99.90;;;;;;5030370;28;20449;-60
2021/11/18 00:23:51;;;;;;;9.20;5.80;;;4.10;99.90;;;;;;5019657;28;20927;-60
2021/11/18 00:26:19;;;;;;;9.03;5.93;;;4.10;99.90;;;;;;5032332;28;20413;-60
2021/11/18 00:28:46;;;;;;;12.07;6.47;;;4.10;99.90;;;;;;5026721;28;20576;-61
2021/11/18 00:31:14;;;;;;;11.90;6.83;;;4.10;99.90;;;;;;5026919;28;20914;-60
2021/11/18 00:33:41;;;;;;;8.60;5.87;;;4.10;99.90;;;;;;5029743;28;20515;-60
2021/11/18 00:36:07;;;;;;;7.27;5.27;;;4.10;99.90;;;;;;5014856;28;20505;-59
2021/11/18 00:38:34;;;;;;;8.60;5.40;;;4.10;99.90;;;;;;5019468;28;20421;-58
2021/11/18 00:41:00;;;;;;;9.80;5.60;;;4.10;99.90;;;;;;5011835;28;20537;-60
2021/11/18 00:43:28;;;;;;;7.53;5.10;;;4.10;99.90;;;;;;5014651;28;20895;-59
2021/11/18 00:45:54;;;;;;;9.20;5.83;;;4.10;99.90;;;;;;5011850;28;20625;-60
2021/11/18 00:48:20;;;;;;;7.47;5.23;;;4.10;99.90;;;;;;5014986;28;20423;-60
2021/11/18 00:50:59;;;;;;;7.93;5.00;;;4.10;99.90;;;;;;5019032;28;20449;-60
2021/11/18 00:53:25;;;;;;;9.90;6.33;;;4.10;99.90;;;;;;5029952;28;20406;-58
2021/11/18 00:55:51;;;;;;;7.97;5.87;;;4.10;99.90;;;;;;5028822;28;20446;-58
2021/11/18 00:58:17;;;;;;;12.37;6.20;;;4.10;99.90;;;;;;5014741;28;20525;-58
2021/11/18 01:00:46;;;;;;;8.20;4.60;;;4.10;99.90;;;;;;5029071;28;20523;-60
2021/11/18 01:03:14;;;;;;;6.83;4.90;;;4.10;99.90;;;;;;5020828;28;20711;-59
2021/11/18 01:05:44;;;;;;;11.17;6.80;;;4.10;99.90;;;;;;5014041;28;20426;-60
2021/11/18 01:08:10;;;;;;;8.40;5.57;;;4.10;99.90;;;;;;5021149;28;20491;-60
2021/11/18 01:10:47;;;;;;;10.20;6.03;;;4.10;99.90;;;;;;5010673;28;21037;-59
2021/11/18 01:13:13;;;;;;;8.20;5.30;;;4.20;99.90;;;;;;5019650;28;20427;-58
2021/11/18 01:15:40;;;;;;;12.10;6.20;;;4.10;99.90;;;;;;5026000;28;20469;-60
2021/11/18 01:18:06;;;;;;;9.40;6.30;;;4.20;99.90;;;;;;5026069;28;20205;-59
2021/11/18 01:20:34;;;;;;;11.87;5.70;;;4.20;99.90;;;;;;5030855;28;20453;-58
2021/11/18 01:23:02;;;;;;;8.90;5.50;;;4.20;99.90;;;;;;5026150;28;20452;-59
2021/11/18 01:25:29;;;;;;;11.77;5.97;;;4.20;99.90;;;;;;5028236;28;20743;-58
2021/11/18 01:27:55;;;;;;;9.53;5.87;;;4.20;99.90;;;;;;5031540;28;20825;-60
2021/11/18 01:30:24;;;;;;;8.87;5.33;;;4.20;99.90;;;;;;5023161;28;20431;-58
2021/11/18 01:32:51;;;;;;;10.07;5.77;;;4.20;99.90;;;;;;5025119;28;20434;-60
2021/11/18 01:35:17;;;;;;;8.70;6.00;;;4.20;99.90;;;;;;5009194;28;20423;-58
2021/11/18 01:37:43;;;;;;;8.53;6.27;;;4.20;99.90;;;;;;5010661;28;20419;-60
2021/11/18 01:40:12;;;;;;;9.67;5.53;;;4.20;99.90;;;;;;5016174;28;20454;-60
2021/11/18 01:42:38;;;;;;;7.97;5.70;;;4.20;99.90;;;;;;5010539;28;20739;-58
2021/11/18 01:45:05;;;;;;;9.17;5.97;;;4.20;99.90;;;;;;5011156;28;20485;-59
2021/11/18 01:47:32;;;;;;;11.63;6.20;;;4.30;99.90;;;;;;5014892;28;20415;-59
2021/11/18 01:49:58;;;;;;;8.43;6.10;;;4.30;99.90;;;;;;5040277;28;20458;-59
2021/11/18 01:52:26;;;;;;;9.27;6.37;;;4.30;99.90;;;;;;5014057;28;20506;-58
2021/11/18 01:54:53;;;;;;;9.80;5.87;;;4.30;99.90;;;;;;5025817;28;20407;-58
2021/11/18 01:57:27;;;;;;;10.23;5.93;;;4.30;99.90;;;;;;5029188;28;20492;-60
2021/11/18 01:59:55;;;;;;;11.33;6.03;;;4.30;99.90;;;;;;5028476;28;20512;-60
2021/11/18 02:02:25;;;;;;;10.67;5.73;;;4.30;99.90;;;;;;5025432;28;20878;-59
2021/11/18 02:04:56;;;;;;;8.30;5.63;;;4.30;99.90;;;;;;5022402;28;20453;-58
2021/11/18 02:07:22;;;;;;;7.50;4.90;;;4.30;99.90;;;;;;5029067;28;20395;-58
2021/11/18 02:09:50;;;;;;;7.20;4.90;;;4.30;99.90;;;;;;5028365;28;20407;-57
2021/11/18 02:12:28;;;;;;;8.20;5.50;;;4.30;99.90;;;;;;5017557;28;20805;-60
2021/11/18 02:14:55;;;;;;;8.93;5.27;;;4.30;99.90;;;;;;5025189;28;20948;-60
2021/11/18 02:17:24;;;;;;;10.13;5.93;;;4.30;99.90;;;;;;5020331;28;20461;-60
2021/11/18 02:19:59;;;;;;;6.67;5.20;;;4.20;99.90;;;;;;5021110;28;20890;-60
2021/11/18 02:22:26;;;;;;;8.03;4.97;;;4.20;99.90;;;;;;5024839;28;20461;-58
2021/11/18 02:24:56;;;;;;;9.43;5.97;;;4.20;99.90;;;;;;5016405;28;20624;-60
2021/11/18 02:27:26;;;;;;;8.10;4.77;;;4.20;99.90;;;;;;5022276;28;20523;-60
2021/11/18 02:29:53;;;;;;;9.53;5.70;;;4.20;99.90;;;;;;5019260;28;20461;-57
2021/11/18 02:32:23;;;;;;;10.27;5.50;;;4.30;99.90;;;;;;5021085;28;20465;-60
2021/11/18 02:34:55;;;;;;;9.00;5.40;;;4.20;99.90;;;;;;5012037;28;20430;-61
2021/11/18 02:37:22;;;;;;;9.47;6.00;;;4.20;99.90;;;;;;5009798;28;20821;-60
2021/11/18 02:39:48;;;;;;;10.40;5.67;;;4.20;99.90;;;;;;5012920;28;20457;-59
2021/11/18 02:42:16;;;;;;;7.07;4.80;;;4.20;99.90;;;;;;5012305;28;20459;-59
2021/11/18 02:44:42;;;;;;;7.67;4.93;;;4.20;99.90;;;;;;5022416;28;20398;-59
2021/11/18 02:47:12;;;;;;;6.03;4.77;;;4.20;99.90;;;;;;5023096;28;20429;-58
2021/11/18 02:49:52;;;;;;;7.70;4.87;;;4.20;99.90;;;;;;5018952;28;20907;-64
2021/11/18 02:52:28;;;;;;;8.93;5.13;;;4.20;99.90;;;;;;5021082;28;20440;-58
2021/11/18 02:55:05;;;;;;;9.67;5.40;;;4.20;99.90;;;;;;5019234;28;20434;-60
2021/11/18 02:57:31;;;;;;;9.60;6.07;;;4.20;99.90;;;;;;5022199;28;20627;-59
2021/11/18 02:59:56;;;;;;;8.80;5.93;;;4.20;99.90;;;;;;5025098;28;20450;-59
2021/11/18 03:02:24;;;;;;;10.87;5.90;;;4.20;99.90;;;;;;5024498;28;20200;-60
2021/11/18 03:04:50;;;;;;;8.93;5.40;;;4.20;99.90;;;;;;5025570;28;20247;-58
2021/11/18 03:07:16;;;;;;;9.83;6.10;;;4.20;99.90;;;;;;5026785;28;20422;-59
2021/11/18 03:09:42;;;;;;;9.70;5.80;;;4.20;99.90;;;;;;5023411;28;20970;-59
2021/11/18 03:12:07;;;;;;;7.20;5.30;;;4.20;99.90;;;;;;5025076;28;20725;-60
2021/11/18 03:14:34;;;;;;;8.63;5.63;;;4.20;99.90;;;;;;5026989;28;20176;-60
2021/11/18 03:17:00;;;;;;;11.10;6.30;;;4.20;99.90;;;;;;5025879;28;20291;-60
2021/11/18 03:19:26;;;;;;;10.23;6.23;;;4.20;99.90;;;;;;5023965;28;21056;-58
2021/11/18 03:21:52;;;;;;;9.67;6.30;;;4.30;99.90;;;;;;5025863;28;20544;-60
2021/11/18 03:24:18;;;;;;;7.10;4.90;;;4.20;99.90;;;;;;5026976;28;20202;-59
2021/11/18 03:26:44;;;;;;;8.63;6.07;;;4.30;99.90;;;;;;5026179;28;21085;-59
2021/11/18 03:29:09;;;;;;;13.00;6.37;;;4.30;99.90;;;;;;5016303;28;20432;-61
2021/11/18 03:31:36;;;;;;;8.67;5.77;;;4.20;99.90;;;;;;5019940;28;20267;-59
2021/11/18 03:34:08;;;;;;;10.67;6.17;;;4.30;99.90;;;;;;5020107;28;20733;-59
2021/11/18 03:36:36;;;;;;;10.13;6.03;;;4.30;99.90;;;;;;5019760;28;20434;-60
2021/11/18 03:39:05;;;;;;;8.20;5.63;;;4.20;99.90;;;;;;5018532;28;20525;-58
2021/11/18 03:41:33;;;;;;;10.03;6.33;;;4.30;99.90;;;;;;5019377;28;20497;-60
2021/11/18 03:44:03;;;;;;;9.50;5.50;;;4.30;99.90;;;;;;5020832;28;20426;-60
2021/11/18 03:46:33;;;;;;;10.73;6.67;;;4.30;99.90;;;;;;5019372;28;20435;-60
2021/11/18 03:48:59;;;;;;;9.40;6.53;;;4.30;99.90;;;;;;5017500;28;20422;-60
2021/11/18 03:51:28;;;;;;;9.70;5.90;;;4.30;99.90;;;;;;5019911;28;20575;-59
2021/11/18 03:53:54;;;;;;;8.73;6.23;;;4.30;99.90;;;;;;5025514;28;20422;-58
2021/11/18 03:56:24;;;;;;;12.23;7.20;;;4.30;99.90;;;;;;5023090;28;20800;-61
2021/11/18 03:58:50;;;;;;;10.10;6.30;;;4.30;99.90;;;;;;5024948;28;20865;-61
2021/11/18 04:01:17;;;;;;;10.20;6.30;;;4.30;99.90;;;;;;5022744;28;20565;-59
2021/11/18 04:03:43;;;;;;;9.80;6.80;;;4.30;99.90;;;;;;5021980;28;20434;-59
2021/11/18 04:06:09;;;;;;;10.90;6.83;;;4.30;99.90;;;;;;5023657;28;20422;-57
2021/11/18 04:08:35;;;;;;;9.33;6.60;;;4.30;99.90;;;;;;5022470;28;20437;-57
2021/11/18 04:11:02;;;;;;;8.67;6.30;;;4.30;99.90;;;;;;5023670;28;20442;-59
2021/11/18 04:13:28;;;;;;;10.07;5.80;;;4.30;99.90;;;;;;5024063;28;20246;-58
2021/11/18 04:15:54;;;;;;;13.67;7.50;;;4.30;99.90;;;;;;5023814;28;21029;-56
2021/11/18 04:18:21;;;;;;;12.03;6.13;;;4.30;99.90;;;;;;5024542;28;20545;-59
2021/11/18 04:20:49;;;;;;;7.90;5.40;;;4.30;99.90;;;;;;5023705;28;20491;-59
2021/11/18 04:23:17;;;;;;;10.20;6.40;;;4.30;99.90;;;;;;5023333;28;20410;-60
2021/11/18 04:25:42;;;;;;;11.40;6.90;;;4.30;99.90;;;;;;5023544;28;20933;-59
2021/11/18 04:28:10;;;;;;;7.40;5.40;;;4.30;99.90;;;;;;5022223;28;20428;-60
2021/11/18 04:30:52;;;;;;;9.13;5.67;;;4.30;99.90;;;;;;5022314;28;20195;-59
2021/11/18 04:33:18;;;;;;;9.27;6.63;;;4.30;99.90;;;;;;5019925;28;20428;-60
2021/11/18 04:35:43;;;;;;;7.50;5.37;;;4.30;99.90;;;;;;5020892;28;21069;-60
2021/11/18 04:38:09;;;;;;;14.60;6.27;;;4.30;99.90;;;;;;5021763;28;20200;-60
2021/11/18 04:40:36;;;;;;;9.07;5.63;;;4.30;99.90;;;;;;5025354;28;20191;-60
2021/11/18 04:43:03;;;;;;;13.53;7.03;;;4.30;99.90;;;;;;5022452;28;20219;-57
2021/11/18 04:45:29;;;;;;;9.53;6.13;;;4.30;99.90;;;;;;5022464;28;20687;-59
2021/11/18 04:47:55;;;;;;;10.50;6.40;;;4.30;99.90;;;;;;5014763;28;20442;-60
2021/11/18 04:50:22;;;;;;;12.83;7.30;;;4.30;99.90;;;;;;5030347;28;20429;-60
2021/11/18 04:52:48;;;;;;;11.90;6.33;;;4.30;99.90;;;;;;5025521;28;20255;-58
2021/11/18 04:55:19;;;;;;;9.07;6.13;;;4.30;99.90;;;;;;5021094;28;20435;-57
2021/11/18 04:57:46;;;;;;;9.40;6.10;;;4.30;99.90;;;;;;5013859;28;20439;-58
2021/11/18 05:00:22;;;;;;;11.23;6.30;;;4.30;99.90;;;;;;5024452;28;20522;-60
2021/11/18 05:02:49;;;;;;;10.90;6.20;;;4.30;99.90;;;;;;5014220;28;20503;-59
2021/11/18 05:05:16;;;;;;;12.87;7.13;;;4.30;99.90;;;;;;5021289;28;20455;-59
2021/11/18 05:07:42;;;;;;;11.17;6.30;;;4.30;99.90;;;;;;5024940;28;20432;-59
2021/11/18 05:10:09;;;;;;;9.73;6.40;;;4.30;99.90;;;;;;5018158;28;20664;-58
2021/11/18 05:12:35;;;;;;;9.93;6.27;;;4.30;99.90;;;;;;5019224;28;20246;-60
2021/11/18 05:15:03;;;;;;;10.77;6.53;;;4.30;99.90;;;;;;5022156;28;20853;-59
2021/11/18 05:17:28;;;;;;;11.20;6.60;;;4.40;99.90;;;;;;5019897;28;20967;-58
2021/11/18 05:19:54;;;;;;;12.67;6.80;;;4.40;99.90;;;;;;5023117;28;20450;-60
2021/11/18 05:22:20;;;;;;;10.47;6.20;;;4.40;99.90;;;;;;5025890;28;20308;-59
2021/11/18 05:24:45;;;;;;;10.63;6.60;;;4.40;99.90;;;;;;5029823;28;20193;-61
2021/11/18 05:27:13;;;;;;;17.67;6.97;;;4.40;99.90;;;;;;5017738;28;20950;-60
2021/11/18 05:29:39;;;;;;;14.40;8.50;;;4.50;99.90;;;;;;5015081;28;20796;-60
2021/11/18 05:32:05;;;;;;;12.43;7.70;;;4.50;99.90;;;;;;5022285;28;20422;-61
2021/11/18 05:34:31;;;;;;;12.00;8.10;;;4.50;99.90;;;;;;5017652;28;20436;-60
2021/11/18 05:36:57;;;;;;;13.27;7.77;;;4.50;99.90;;;;;;5007673;28;20435;-59
2021/11/18 05:39:22;;;;;;;13.93;7.70;;;4.50;99.90;;;;;;5021547;28;20508;-60
2021/11/18 05:41:48;;;;;;;13.47;7.80;;;4.50;99.90;;;;;;5021539;28;20230;-59
2021/11/18 05:44:14;;;;;;;13.83;7.90;;;4.50;99.90;;;;;;5025653;28;20267;-61
2021/11/18 05:46:40;;;;;;;8.33;6.00;;;4.50;99.90;;;;;;5015211;28;20235;-60
2021/11/18 05:49:07;;;;;;;12.47;7.63;;;4.50;99.90;;;;;;5014925;28;20482;-61
2021/11/18 05:51:33;;;;;;;11.00;7.20;;;4.50;99.90;;;;;;5011113;28;21624;-61
2021/11/18 05:53:59;;;;;;;16.17;6.90;;;4.50;99.90;;;;;;5006735;28;20462;-60
2021/11/18 05:56:26;;;;;;;9.30;5.43;;;4.50;99.90;;;;;;5012822;28;20514;-60
2021/11/18 05:58:53;;;;;;;12.00;6.27;;;4.50;99.90;;;;;;5018173;28;20492;-60
2021/11/18 06:01:24;;;;;;;15.37;7.33;;;4.40;99.90;;;;;;5014253;28;20851;-59
2021/11/18 06:03:50;;;;;;;10.43;6.90;;;4.50;99.90;;;;;;5027764;28;20434;-59
2021/11/18 06:06:16;;;;;;;11.20;6.83;;;4.50;99.90;;;;;;5027148;28;20441;-60
2021/11/18 06:08:41;;;;;;;18.60;9.10;;;4.50;99.90;;;;;;5013690;28;20461;-60
2021/11/18 06:11:09;;;;;;;11.70;7.60;;;4.50;99.90;;;;;;5015721;28;20463;-60
2021/11/18 06:13:34;;;;;;;16.17;7.67;;;4.50;99.90;;;;;;5018493;28;20683;-60
2021/11/18 06:16:02;;;;;;;13.13;6.80;;;4.50;99.90;;;;;;5010692;28;20430;-61
2021/11/18 06:18:28;;;;;;;13.30;7.47;;;4.50;99.90;;;;;;5019957;28;20427;-59
2021/11/18 06:20:54;;;;;;;15.13;7.90;;;4.50;99.90;;;;;;5025134;28;20465;-61
2021/11/18 06:23:20;;;;;;;14.00;6.93;;;4.50;99.90;;;;;;5019767;28;20270;-61
2021/11/18 06:25:47;;;;;;;10.70;6.90;;;4.50;99.90;;;;;;5023918;28;20168;-61
2021/11/18 06:28:13;;;;;;;11.70;7.70;;;4.50;99.90;;;;;;5022361;28;20435;-61
2021/11/18 06:30:41;;;;;;;20.33;8.13;;;4.50;99.90;;;;;;5016813;28;20469;-61
2021/11/18 06:33:08;;;;;;;11.23;7.67;;;4.50;99.90;;;;;;5021727;28;20488;-61
2021/11/18 06:35:34;;;;;;;16.03;8.03;;;4.50;99.90;;;;;;5017691;28;20442;-62
2021/11/18 06:38:00;;;;;;;12.63;7.00;;;4.50;99.90;;;;;;5025196;28;20461;-61
2021/11/18 06:40:26;;;;;;;13.40;6.73;;;4.50;99.90;;;;;;5021351;28;20482;-61
2021/11/18 06:42:53;;;;;;;13.83;6.60;;;4.50;99.90;;;;;;5019148;28;20286;-61
2021/11/18 06:45:25;;;;;;;10.50;5.80;;;4.50;99.90;;;;;;5026199;28;20422;-61
2021/11/18 06:47:50;;;;;;;10.33;6.37;;;4.50;99.90;;;;;;5022874;28;20434;-61
2021/11/18 06:50:17;;;;;;;13.33;6.77;;;4.60;99.90;;;;;;5017308;28;20450;-59
2021/11/18 06:52:43;;;;;;;13.10;7.30;;;4.60;99.90;;;;;;5026126;28;20189;-61
2021/11/18 06:55:10;;;;;;;15.57;7.70;;;4.60;99.90;;;;;;5023251;28;20521;-60
2021/11/18 06:57:35;;;;;;;11.53;7.10;;;4.60;99.90;;;;;;5022298;28;20482;-61
2021/11/18 07:00:03;;;;;;;10.97;7.43;;;4.60;99.90;;;;;;5026387;28;20825;-60
2021/11/18 07:02:29;;;;;;;13.13;7.27;;;4.60;99.90;;;;;;5021025;28;20192;-60
2021/11/18 07:04:54;;;;;;;12.10;7.60;;;4.60;99.90;;;;;;5016877;28;20485;-60
2021/11/18 07:07:20;;;;;;;15.73;9.23;;;4.60;99.90;;;;;;5021883;28;20264;-60
2021/11/18 07:09:45;;;;;;;16.97;8.60;;;4.70;99.90;;;;;;5020068;28;20215;-58
2021/11/18 07:12:14;;;;;;;15.90;8.47;;;4.70;99.90;;;;;;5017770;28;20575;-60
2021/11/18 07:14:41;;;;;;;19.97;10.07;;;4.70;99.90;;;;;;5024898;28;20666;-60
2021/11/18 07:17:07;;;;;;;18.17;10.53;;;4.70;99.90;;;;;;5027557;28;20835;-59
2021/11/18 07:19:33;;;;;;;17.63;9.40;;;4.80;99.90;;;;;;5018794;28;20441;-58
2021/11/18 07:22:00;;;;;;;21.33;11.10;;;4.80;99.90;;;;;;5022647;28;21179;-60
2021/11/18 07:24:27;;;;;;;25.67;11.13;;;4.80;99.90;;;;;;5025200;28;20423;-59
2021/11/18 07:26:53;;;;;;;31.13;12.70;;;4.80;99.90;;;;;;5029732;28;20403;-60
2021/11/18 07:29:19;;;;;;;30.63;13.57;;;4.90;99.90;;;;;;5029606;28;20476;-60
2021/11/18 07:31:44;;;;;;;28.87;15.20;;;4.90;99.90;;;;;;5020819;28;20204;-59
2021/11/18 07:34:10;;;;;;;32.07;15.70;;;5.00;99.90;;;;;;5021977;28;20184;-59
2021/11/18 07:36:36;;;;;;;26.60;13.33;;;5.00;99.90;;;;;;5024134;28;20176;-59
2021/11/18 07:39:03;;;;;;;23.13;10.50;;;5.00;99.90;;;;;;5026456;28;21252;-61
2021/11/18 07:41:30;;;;;;;17.67;6.70;;;5.10;99.90;;;;;;5026294;28;20462;-60
2021/11/18 07:43:56;;;;;;;12.27;4.97;;;5.10;99.90;;;;;;5031714;28;20927;-59
2021/11/18 07:46:22;;;;;;;7.57;4.57;;;5.20;99.90;;;;;;5025676;28;20424;-60
2021/11/18 07:48:49;;;;;;;7.77;4.77;;;5.20;99.90;;;;;;5025926;28;20873;-60
2021/11/18 07:51:17;;;;;;;9.10;5.40;;;5.30;99.90;;;;;;5035452;28;20457;-60
2021/11/18 07:53:44;;;;;;;11.27;5.83;;;5.30;99.90;;;;;;5033978;28;20437;-60
2021/11/18 07:56:10;;;;;;;8.10;4.90;;;5.30;99.90;;;;;;5026648;28;20524;-61
2021/11/18 07:58:36;;;;;;;8.90;5.37;;;5.40;99.90;;;;;;5027736;28;21059;-60
2021/11/18 08:01:03;;;;;;;10.27;5.93;;;5.40;99.90;;;;;;5019504;28;20522;-58
2021/11/18 08:03:30;;;;;;;19.70;6.53;;;5.30;99.90;;;;;;5028832;28;20246;-61
2021/11/18 08:05:57;;;;;;;10.00;5.60;;;5.40;99.90;;;;;;5027562;28;20430;-61
2021/11/18 08:08:23;;;;;;;9.43;5.80;;;5.40;99.90;;;;;;5028466;28;20529;-59
2021/11/18 08:10:48;;;;;;;9.23;5.17;;;5.40;99.90;;;;;;5025300;28;20575;-60
2021/11/18 08:13:14;;;;;;;12.20;7.03;;;5.40;99.90;;;;;;5027448;28;20172;-60
2021/11/18 08:15:40;;;;;;;12.30;6.00;;;5.40;99.90;;;;;;5020790;28;20677;-60
2021/11/18 08:18:06;;;;;;;12.47;5.93;;;5.40;99.90;;;;;;5026427;28;20243;-61
2021/11/18 08:20:32;;;;;;;12.17;6.90;;;5.40;99.90;;;;;;5024729;28;20204;-60
2021/11/18 08:22:59;;;;;;;13.33;6.27;;;5.50;99.90;;;;;;5026102;28;20449;-61
2021/11/18 08:25:27;;;;;;;8.50;5.60;;;5.50;99.90;;;;;;5029768;28;20418;-60
2021/11/18 08:27:53;;;;;;;11.73;6.80;;;5.60;99.90;;;;;;5020540;28;20513;-59
2021/11/18 08:30:23;;;;;;;12.80;6.60;;;5.60;99.90;;;;;;5024736;28;20939;-60
2021/11/18 08:32:52;;;;;;;13.67;7.43;;;5.60;99.90;;;;;;5026747;28;20483;-61
2021/11/18 08:35:20;;;;;;;12.93;7.20;;;5.70;99.90;;;;;;5026588;28;20782;-60
2021/11/18 08:37:46;;;;;;;14.70;7.53;;;5.70;99.90;;;;;;5024738;28;20440;-60
2021/11/18 08:40:12;;;;;;;14.33;7.60;;;5.70;99.90;;;;;;5023539;28;20459;-60
2021/11/18 08:42:38;;;;;;;12.60;6.70;;;5.70;99.90;;;;;;5021078;28;20191;-60
2021/11/18 08:45:07;;;;;;;12.97;7.70;;;5.70;99.90;;;;;;5024247;28;20436;-60
2021/11/18 08:47:34;;;;;;;15.53;6.40;;;5.70;99.90;;;;;;5023710;28;20435;-60
2021/11/18 08:50:00;;;;;;;13.20;6.70;;;5.70;99.90;;;;;;5022346;28;21156;-60
2021/11/18 08:52:28;;;;;;;9.83;5.97;;;5.70;99.90;;;;;;5016435;28;20927;-60
2021/11/18 08:54:56;;;;;;;11.30;5.77;;;5.70;99.90;;;;;;5024586;28;20924;-60
2021/11/18 08:57:23;;;;;;;8.33;5.30;;;5.70;99.90;;;;;;5019156;28;20445;-59
2021/11/18 08:59:50;;;;;;;6.83;4.50;;;5.70;99.90;;;;;;5023046;28;20476;-58
2021/11/18 09:02:22;;;;;;;8.87;5.30;;;5.80;99.90;;;;;;5035625;28;20504;-59
2021/11/18 09:04:50;;;;;;;7.60;3.80;;;5.80;99.90;;;;;;5016000;28;21039;-58
2021/11/18 09:07:16;;;;;;;6.00;4.10;;;5.80;99.90;;;;;;5015862;28;20590;-58
2021/11/18 09:09:42;;;;;;;10.17;4.50;;;5.80;99.90;;;;;;5025899;28;20443;-61
2021/11/18 09:12:09;;;;;;;7.73;5.50;;;5.90;99.90;;;;;;5033965;28;20426;-66
2021/11/18 09:14:36;;;;;;;5.47;4.00;;;5.90;99.90;;;;;;5046821;28;20227;-60
2021/11/18 09:17:04;;;;;;;7.60;4.00;;;5.90;99.90;;;;;;5030884;28;20800;-61
2021/11/18 09:19:33;;;;;;;6.03;4.00;;;5.90;99.90;;;;;;5018320;28;20915;-58
2021/11/18 09:22:01;;;;;;;7.27;4.70;;;5.90;99.90;;;;;;5024575;28;21170;-60
2021/11/18 09:24:31;;;;;;;11.17;5.33;;;5.90;99.90;;;;;;5029970;28;20413;-61
2021/11/18 09:27:08;;;;;;;6.13;4.70;;;6.00;99.90;;;;;;5025157;28;20487;-59
2021/11/18 09:29:34;;;;;;;12.63;5.77;;;6.00;99.90;;;;;;5019520;28;20457;-60
2021/11/18 09:32:02;;;;;;;6.10;5.07;;;6.00;99.90;;;;;;5024347;28;20781;-60
2021/11/18 09:34:28;;;;;;;9.33;4.80;;;6.00;99.90;;;;;;5035478;28;20426;-59
2021/11/18 09:36:55;;;;;;;9.07;5.03;;;6.00;99.90;;;;;;5024441;28;20455;-58
2021/11/18 09:39:21;;;;;;;6.17;4.27;;;6.00;99.90;;;;;;5029057;28;20410;-60
2021/11/18 09:42:02;;;;;;;11.10;4.47;;;6.10;99.90;;;;;;5024505;28;20462;-57
2021/11/18 09:45:05;;;;;;;5.80;3.90;;;6.10;99.90;;;;;;5023364;28;20830;-60
2021/11/18 09:47:55;;;;;;;9.67;4.47;;;6.10;99.90;;;;;;5019004;28;20422;-59
2021/11/18 09:50:45;;;;;;;8.77;5.03;;;6.20;99.90;;;;;;5027712;28;20435;-60
2021/11/18 09:53:30;;;;;;;6.27;4.60;;;6.20;99.90;;;;;;5026085;28;20692;-58
2021/11/18 09:55:55;;;;;;;6.47;4.33;;;6.20;99.90;;;;;;5027400;28;20513;-60
2021/11/18 09:58:45;;;;;;;7.30;4.60;;;6.20;99.90;;;;;;5021872;28;20554;-59
2021/11/18 10:01:45;;;;;;;9.90;4.37;;;6.20;99.90;;;;;;5024003;28;20257;-61
2021/11/18 10:04:37;;;;;;;8.97;4.73;;;6.20;99.90;;;;;;5018136;28;20429;-60
2021/11/18 10:07:33;;;;;;;6.17;4.03;;;6.20;99.90;;;;;;5022945;28;20570;-60
2021/11/18 10:10:05;;;;;;;5.90;4.20;;;6.20;99.90;;;;;;4990786;28;21047;-60
2021/11/18 10:12:51;;;;;;;5.97;3.93;;;6.20;99.90;;;;;;5032399;28;20425;-60
2021/11/18 10:15:21;;;;;;;5.07;3.70;;;6.20;99.90;;;;;;5004135;28;20439;-59
2021/11/18 10:18:00;;;;;;;10.30;3.97;;;6.20;99.90;;;;;;5024533;28;20433;-58
2021/11/18 10:20:46;;;;;;;6.20;3.10;;;6.20;99.90;;;;;;5022565;28;20515;-59
2021/11/18 10:23:17;;;;;;;6.00;3.93;;;6.20;99.90;;;;;;5024142;28;20450;-60
2021/11/18 10:25:53;;;;;;;6.37;3.83;;;6.20;99.90;;;;;;5021488;28;20435;-61
2021/11/18 10:28:19;;;;;;;4.87;3.77;;;6.30;99.90;;;;;;5026199;28;20437;-60
2021/11/18 10:30:53;;;;;;;7.60;4.30;;;6.30;99.90;;;;;;5026405;28;20458;-59
2021/11/18 10:33:28;;;;;;;6.67;4.20;;;6.30;99.90;;;;;;5020617;28;20164;-59
2021/11/18 10:35:54;;;;;;;5.80;4.10;;;6.30;99.90;;;;;;5015398;28;20427;-60
2021/11/18 10:38:19;;;;;;;6.00;4.50;;;6.30;99.90;;;;;;5027110;28;20441;-60
2021/11/18 10:41:00;;;;;;;8.20;4.63;;;6.30;99.90;;;;;;5015220;28;20199;-60
2021/11/18 10:43:31;;;;;;;7.60;4.50;;;6.40;99.90;;;;;;5016300;28;20179;-60
2021/11/18 10:46:24;;;;;;;7.77;4.63;;;6.40;99.90;;;;;;5019519;28;20427;-59
2021/11/18 10:48:56;;;;;;;6.90;4.13;;;6.40;99.90;;;;;;5020827;28;20478;-60
2021/11/18 10:51:45;;;;;;;6.60;5.10;;;6.40;99.90;;;;;;5024207;28;20474;-60
2021/11/18 10:54:14;;;;;;;6.80;4.00;;;6.40;99.90;;;;;;5020444;28;20423;-54
2021/11/18 10:56:40;;;;;;;11.10;5.83;;;6.40;99.90;;;;;;5010975;28;20463;-60
2021/11/18 10:59:31;;;;;;;8.97;4.60;;;6.40;99.90;;;;;;5024439;28;20418;-62
2021/11/18 11:01:57;;;;;;;5.47;4.30;;;6.50;99.90;;;;;;5021319;28;20207;-59
2021/11/18 11:04:39;;;;;;;5.70;4.23;;;6.50;99.90;;;;;;5019955;28;20493;-60
2021/11/18 11:07:09;;;;;;;7.73;4.17;;;6.50;99.90;;;;;;5021272;28;20423;-62
2021/11/18 11:09:43;;;;;;;8.37;5.07;;;6.50;99.90;;;;;;5011682;28;20922;-60
2021/11/18 11:12:30;;;;;;;10.10;6.10;;;6.50;99.90;;;;;;5014931;28;20419;-60
2021/11/18 11:15:27;;;;;;;8.87;5.47;;;6.50;99.90;;;;;;5011160;28;21063;-59
2021/11/18 11:18:14;;;;;;;5.50;4.60;;;6.60;99.90;;;;;;4993364;28;20488;-60
2021/11/18 11:21:10;;;;;;;8.07;5.17;;;6.60;99.90;;;;;;5017260;28;20521;-59
2021/11/18 11:24:07;;;;;;;11.40;6.70;;;6.70;99.90;;;;;;5013308;28;20514;-60
2021/11/18 11:27:10;;;;;;;7.83;6.37;;;6.70;99.90;;;;;;5011516;28;20427;-58
2021/11/18 11:29:56;;;;;;;9.90;7.33;;;6.80;99.90;;;;;;5016251;28;20426;-60
2021/11/18 11:32:58;;;;;;;11.03;7.37;;;6.80;99.90;;;;;;5016172;28;20411;-60
2021/11/18 11:35:30;;;;;;;15.30;8.07;;;6.80;99.90;;;;;;5016231;28;20430;-61
2021/11/18 11:38:08;;;;;;;9.77;7.60;;;6.90;99.90;;;;;;5026758;28;20949;-59
2021/11/18 11:41:06;;;;;;;12.30;8.80;;;6.90;99.90;;;;;;5017762;28;20823;-60
2021/11/18 11:43:47;;;;;;;12.57;7.13;;;7.00;99.90;;;;;;5016235;28;20431;-60
2021/11/18 11:46:28;;;;;;;9.73;6.83;;;7.00;99.90;;;;;;5008837;28;20423;-60
2021/11/18 11:49:18;;;;;;;11.87;6.27;;;7.10;99.90;;;;;;5014116;28;20710;-59
2021/11/18 11:52:15;;;;;;;15.97;8.37;;;7.10;99.90;;;;;;5016524;28;20846;-60
2021/11/18 11:55:11;;;;;;;13.00;8.10;;;7.10;99.90;;;;;;5013194;28;20438;-61
2021/11/18 11:57:40;;;;;;;11.40;7.57;;;7.10;99.90;;;;;;5015616;28;21088;-61
2021/11/18 12:00:19;;;;;;;9.67;7.20;;;7.10;99.90;;;;;;5008730;28;20454;-60
2021/11/18 12:03:06;;;;;;;10.97;7.83;;;7.20;99.90;;;;;;5010105;28;20904;-59
2021/11/18 12:05:48;;;;;;;11.27;7.33;;;7.30;99.90;;;;;;5017382;28;20432;-58
2021/11/18 12:08:25;;;;;;;8.13;6.47;;;7.40;99.90;;;;;;5014373;28;20461;-59
2021/11/18 12:11:02;;;;;;;10.00;6.43;;;7.50;99.90;;;;;;5013502;28;20552;-60
2021/11/18 12:14:06;;;;;;;8.87;6.40;;;7.50;99.90;;;;;;5023715;28;20514;-59
2021/11/18 12:16:43;;;;;;;10.90;6.23;;;7.60;99.90;;;;;;4989373;28;20467;-61
2021/11/18 12:19:43;;;;;;;7.47;5.70;;;7.60;99.90;;;;;;4974206;28;20823;-61
2021/11/18 12:22:27;;;;;;;9.10;7.03;;;7.60;99.90;;;;;;5017712;28;20458;-61
2021/11/18 12:25:12;;;;;;;11.00;7.37;;;7.60;99.90;;;;;;5021199;28;20431;-61
2021/11/18 12:28:10;;;;;;;8.47;7.07;;;7.50;99.90;;;;;;5025706;28;20510;-61
2021/11/18 12:30:57;;;;;;;12.93;8.00;;;7.50;99.90;;;;;;5013377;28;20484;-62
2021/11/18 12:33:23;;;;;;;9.93;6.30;;;7.50;99.90;;;;;;5024307;28;20433;-61
2021/11/18 12:36:21;;;;;;;13.60;7.73;;;7.50;99.90;;;;;;5031487;28;20430;-61
2021/11/18 12:39:14;;;;;;;13.10;6.70;;;7.50;99.90;;;;;;5020768;28;20484;-59
2021/11/18 12:41:43;;;;;;;10.93;6.10;;;7.50;99.90;;;;;;5022022;28;21016;-60
2021/11/18 12:44:21;;;;;;;8.57;5.83;;;7.60;99.90;;;;;;5017734;28;20895;-61
2021/11/18 12:46:56;;;;;;;10.90;6.63;;;7.60;99.90;;;;;;5016467;28;20426;-60
2021/11/18 12:49:47;;;;;;;10.37;6.90;;;7.80;99.90;;;;;;5016143;28;20435;-60
2021/11/18 12:52:12;;;;;;;8.40;6.40;;;7.90;99.90;;;;;;4989323;28;20520;-61
2021/11/18 12:55:06;;;;;;;10.50;6.10;;;8.00;99.90;;;;;;5020740;28;21238;-60
2021/11/18 12:57:36;;;;;;;8.53;6.00;;;8.10;99.90;;;;;;5014511;28;20184;-55
2021/11/18 13:00:09;;;;;;;10.50;5.63;;;8.20;99.90;;;;;;5020048;28;21136;-61
2021/11/18 13:02:37;;;;;;;11.53;6.50;;;8.30;99.90;;;;;;5022454;28;21013;-61
2021/11/18 13:05:09;;;;;;;14.60;5.23;;;8.30;99.90;;;;;;5023801;28;20949;-62
2021/11/18 13:07:40;;;;;;;8.00;6.10;;;8.50;99.90;;;;;;5024228;28;20511;-61
2021/11/18 13:10:18;;;;;;;9.27;5.60;;;8.70;99.90;;;;;;5017862;28;21252;-60
2021/11/18 13:12:58;;;;;;;7.40;4.97;;;8.80;99.90;;;;;;5025673;28;20839;-61